Time;durP1;ratioP1;P1;durP2;ratioP2;P2;SDS_P1;SDS_P2;PMS_P1;PMS_P2;Temp;Humidity;BMP_temperature;BMP_pressure;BME280_temperature;BME280_humidity;BME280_pressure;Samples;Min_cycle;Max_cycle;Signal;HPM_P1;HPM_P2
2022/10/20 00:01:18;;;;;;;27.73;17.07;;;12.80;99.90;;;;;;5134536;27;20171;-76
2022/10/20 00:03:44;;;;;;;18.90;15.17;;;12.80;99.90;;;;;;5134473;27;20158;-77
2022/10/20 00:06:12;;;;;;;24.90;16.43;;;12.80;99.90;;;;;;5134037;27;20198;-77
2022/10/20 00:08:38;;;;;;;25.70;16.27;;;12.80;99.90;;;;;;5134448;27;20193;-76
2022/10/20 00:11:04;;;;;;;23.93;16.97;;;12.80;99.90;;;;;;5134345;27;20163;-77
2022/10/20 00:13:30;;;;;;;28.07;18.87;;;12.70;99.90;;;;;;5134502;27;20167;-77
2022/10/20 00:15:57;;;;;;;24.33;17.33;;;12.70;99.90;;;;;;5134253;27;20162;-77
2022/10/20 00:18:23;;;;;;;21.63;15.40;;;12.60;99.90;;;;;;5134113;27;20210;-77
2022/10/20 00:20:49;;;;;;;84.40;26.57;;;12.60;99.90;;;;;;5133948;27;20181;-77
2022/10/20 00:23:15;;;;;;;27.10;15.80;;;12.50;99.90;;;;;;5134410;27;20174;-76
2022/10/20 00:25:40;;;;;;;23.50;15.80;;;12.50;99.90;;;;;;5115821;28;20630;-76
2022/10/20 00:28:06;;;;;;;21.30;16.43;;;12.50;99.90;;;;;;5134052;28;20733;-76
2022/10/20 00:30:37;;;;;;;35.00;24.47;;;12.40;99.90;;;;;;5134088;28;20227;-77
2022/10/20 00:33:03;;;;;;;41.87;31.87;;;12.40;99.90;;;;;;5133939;28;20232;-77
2022/10/20 00:35:30;;;;;;;26.03;18.83;;;12.40;99.90;;;;;;5115264;28;20315;-77
2022/10/20 00:37:55;;;;;;;24.70;17.50;;;12.40;99.90;;;;;;5133963;28;20696;-77
2022/10/20 00:40:21;;;;;;;34.23;25.13;;;12.40;99.90;;;;;;5134226;28;20167;-77
2022/10/20 00:42:47;;;;;;;53.77;36.77;;;12.40;99.90;;;;;;5134148;28;20177;-77
2022/10/20 00:45:18;;;;;;;30.37;22.53;;;12.40;99.90;;;;;;5133944;28;20162;-77
2022/10/20 00:47:59;;;;;;;29.70;19.60;;;12.40;99.90;;;;;;5134048;28;20193;-77
2022/10/20 00:50:30;;;;;;;34.50;24.57;;;12.40;99.90;;;;;;5133732;28;20177;-77
2022/10/20 00:52:57;;;;;;;28.30;18.20;;;12.40;99.90;;;;;;5134228;28;20177;-77
2022/10/20 00:55:27;;;;;;;26.30;18.70;;;12.40;99.90;;;;;;5133962;28;20170;-77
2022/10/20 00:57:54;;;;;;;24.67;18.97;;;12.40;99.90;;;;;;5134152;28;20181;-77
2022/10/20 01:00:20;;;;;;;37.07;24.63;;;12.40;99.90;;;;;;5135034;27;20174;-77
2022/10/20 01:02:48;;;;;;;36.37;28.10;;;12.40;99.90;;;;;;5137935;27;20178;-77
2022/10/20 01:05:13;;;;;;;23.73;18.77;;;12.40;99.90;;;;;;5137668;27;20205;-77
2022/10/20 01:07:39;;;;;;;25.33;18.37;;;12.40;99.90;;;;;;5137771;27;20194;-77
2022/10/20 01:10:06;;;;;;;27.67;17.47;;;12.40;99.90;;;;;;5137857;27;20731;-77
2022/10/20 01:13:02;;;;;;;21.67;16.40;;;12.40;99.90;;;;;;5137659;27;20201;-77
2022/10/20 01:15:58;;;;;;;23.00;16.80;;;12.40;99.90;;;;;;5137811;27;20178;-77
2022/10/20 01:18:40;;;;;;;23.13;17.83;;;12.40;99.90;;;;;;5137409;27;20202;-77
2022/10/20 01:21:32;;;;;;;21.93;14.73;;;12.40;99.90;;;;;;5137341;27;20163;-77
2022/10/20 01:24:07;;;;;;;30.10;19.37;;;12.40;99.90;;;;;;5098474;27;20657;-77
2022/10/20 01:26:51;;;;;;;23.67;18.00;;;12.30;99.90;;;;;;5137475;27;20270;-77
2022/10/20 01:29:28;;;;;;;25.37;17.50;;;12.30;99.90;;;;;;5140065;27;20159;-77
2022/10/20 01:32:17;;;;;;;21.93;17.10;;;12.30;99.90;;;;;;5141313;27;20298;-77
2022/10/20 01:34:58;;;;;;;26.77;17.63;;;12.20;99.90;;;;;;5138325;27;20171;-76
2022/10/20 01:37:41;;;;;;;23.63;17.07;;;12.20;99.90;;;;;;5137700;27;20159;-78
2022/10/20 01:40:33;;;;;;;25.33;16.03;;;12.20;99.90;;;;;;5137447;27;20210;-76
2022/10/20 01:43:04;;;;;;;20.83;15.00;;;12.10;99.90;;;;;;5137673;27;20166;-79
2022/10/20 01:45:32;;;;;;;20.83;17.10;;;12.10;99.90;;;;;;5137587;27;20163;-78
2022/10/20 01:48:03;;;;;;;23.87;17.50;;;12.10;99.90;;;;;;5136806;27;20198;-77
2022/10/20 01:50:30;;;;;;;28.50;17.77;;;12.20;99.90;;;;;;5136641;27;20163;-78
2022/10/20 01:52:56;;;;;;;25.57;18.93;;;12.30;99.90;;;;;;5136866;27;20670;-77
2022/10/20 01:55:23;;;;;;;23.77;17.53;;;12.20;99.90;;;;;;5137034;27;20358;-77
2022/10/20 01:58:18;;;;;;;21.47;17.20;;;12.20;99.90;;;;;;5136744;27;20194;-77
2022/10/20 02:00:45;;;;;;;23.97;17.27;;;12.20;99.90;;;;;;5136786;27;20189;-77
2022/10/20 02:03:40;;;;;;;25.17;18.60;;;12.20;99.90;;;;;;5136532;27;20258;-77
2022/10/20 02:06:43;;;;;;;22.37;16.57;;;12.20;99.90;;;;;;5127294;27;20231;-77
2022/10/20 02:09:29;;;;;;;22.50;16.77;;;12.20;99.90;;;;;;5136607;27;20626;-77
2022/10/20 02:12:07;;;;;;;22.77;17.23;;;12.20;99.90;;;;;;5117484;27;20204;-77
2022/10/20 02:14:34;;;;;;;26.20;16.93;;;12.20;99.90;;;;;;5136810;27;20174;-77
2022/10/20 02:17:06;;;;;;;24.23;18.00;;;12.30;99.90;;;;;;5117698;27;20528;-77
2022/10/20 02:19:37;;;;;;;25.97;16.97;;;12.20;99.90;;;;;;5136627;27;20305;-77
2022/10/20 02:22:05;;;;;;;25.57;17.60;;;12.30;99.90;;;;;;5136642;27;20194;-77
2022/10/20 02:24:35;;;;;;;21.30;17.40;;;12.30;99.90;;;;;;5136666;27;20696;-77
2022/10/20 02:27:07;;;;;;;27.30;18.40;;;12.30;99.90;;;;;;5136153;27;20284;-76
2022/10/20 02:29:38;;;;;;;28.67;18.23;;;12.30;99.90;;;;;;5136242;27;20170;-77
2022/10/20 02:32:04;;;;;;;25.53;17.00;;;12.30;99.90;;;;;;5135641;27;20274;-76
2022/10/20 02:34:30;;;;;;;24.63;18.30;;;12.20;99.90;;;;;;5136285;27;20258;-76
2022/10/20 02:36:57;;;;;;;26.03;18.20;;;12.20;99.90;;;;;;5136219;27;20592;-76
2022/10/20 02:39:24;;;;;;;26.27;17.23;;;12.20;99.90;;;;;;5136106;27;20213;-76
2022/10/20 02:41:50;;;;;;;26.10;18.23;;;12.10;99.90;;;;;;5136042;27;20166;-76
2022/10/20 02:44:16;;;;;;;24.13;16.90;;;12.20;99.90;;;;;;5117667;27;20226;-76
2022/10/20 02:46:42;;;;;;;26.17;18.30;;;12.20;99.90;;;;;;5135577;27;20193;-79
2022/10/20 02:49:08;;;;;;;27.57;17.00;;;12.20;99.90;;;;;;5136031;27;20633;-78
2022/10/20 02:51:34;;;;;;;24.70;17.97;;;12.20;99.90;;;;;;5136056;27;20178;-78
2022/10/20 02:53:59;;;;;;;21.83;15.53;;;12.20;99.90;;;;;;5136025;27;20178;-78
2022/10/20 02:56:25;;;;;;;22.83;17.87;;;12.10;99.90;;;;;;5135947;27;20206;-78
2022/10/20 02:58:50;;;;;;;23.23;16.30;;;12.10;99.90;;;;;;5135605;27;20201;-79
2022/10/20 03:01:16;;;;;;;21.93;16.53;;;12.20;99.90;;;;;;5135487;27;20590;-78
2022/10/20 03:03:42;;;;;;;23.10;16.80;;;12.20;99.90;;;;;;5135893;27;20170;-77
2022/10/20 03:06:13;;;;;;;22.47;16.80;;;12.20;99.90;;;;;;5135520;27;20253;-78
2022/10/20 03:08:38;;;;;;;23.90;17.00;;;12.30;99.90;;;;;;5117185;27;20170;-78
2022/10/20 03:11:04;;;;;;;20.87;16.60;;;12.30;99.90;;;;;;5135482;27;20166;-76
2022/10/20 03:13:30;;;;;;;21.67;16.47;;;12.30;99.90;;;;;;5135419;27;20202;-77
2022/10/20 03:15:56;;;;;;;24.80;18.67;;;12.40;99.90;;;;;;5134656;27;20672;-77
2022/10/20 03:18:21;;;;;;;23.17;16.77;;;12.30;99.90;;;;;;5134911;27;20672;-78
2022/10/20 03:20:50;;;;;;;22.63;15.93;;;12.40;99.90;;;;;;5135051;27;20238;-78
2022/10/20 03:23:16;;;;;;;20.87;16.03;;;12.30;99.90;;;;;;5134365;27;20249;-78
2022/10/20 03:25:41;;;;;;;21.70;16.13;;;12.40;99.90;;;;;;5134828;27;20257;-78
2022/10/20 03:28:07;;;;;;;20.57;16.17;;;12.50;99.90;;;;;;5116725;27;20194;-78
2022/10/20 03:30:33;;;;;;;20.73;15.87;;;12.50;99.90;;;;;;5134609;27;20167;-78
2022/10/20 03:32:58;;;;;;;22.10;15.90;;;12.50;99.90;;;;;;5134745;27;20306;-78
2022/10/20 03:35:24;;;;;;;18.90;15.10;;;12.50;99.90;;;;;;5116501;27;20174;-78
2022/10/20 03:37:49;;;;;;;22.20;15.60;;;12.60;99.90;;;;;;5116333;27;20508;-78
2022/10/20 03:40:15;;;;;;;23.50;16.97;;;12.70;99.90;;;;;;5134287;27;20178;-78
2022/10/20 03:42:41;;;;;;;23.27;16.37;;;12.60;99.90;;;;;;5134862;27;20163;-78
2022/10/20 03:45:07;;;;;;;21.27;15.60;;;12.60;99.90;;;;;;5115901;27;20258;-78
2022/10/20 03:47:33;;;;;;;24.27;15.77;;;12.50;99.90;;;;;;5134806;27;20610;-78
2022/10/20 03:49:59;;;;;;;21.20;15.53;;;12.50;99.90;;;;;;5134560;27;20170;-77
2022/10/20 03:52:24;;;;;;;19.40;15.07;;;12.30;99.90;;;;;;5134239;27;20170;-77
2022/10/20 03:54:51;;;;;;;22.07;16.83;;;12.20;99.90;;;;;;5134700;27;20211;-77
2022/10/20 03:57:17;;;;;;;21.13;16.20;;;12.20;99.90;;;;;;5134264;27;20166;-76
2022/10/20 03:59:43;;;;;;;23.70;16.67;;;12.10;99.90;;;;;;5133814;27;20198;-77
2022/10/20 04:02:27;;;;;;;21.60;16.83;;;12.10;99.90;;;;;;5116104;27;20173;-77
2022/10/20 04:04:53;;;;;;;26.00;16.93;;;12.00;99.90;;;;;;5134198;27;20166;-76
2022/10/20 04:07:18;;;;;;;21.03;16.47;;;12.10;99.90;;;;;;5134258;27;20189;-76
2022/10/20 04:09:44;;;;;;;23.57;16.40;;;12.00;99.90;;;;;;5134030;27;20175;-76
2022/10/20 04:12:09;;;;;;;24.70;17.07;;;12.00;99.90;;;;;;5133552;27;20163;-78
2022/10/20 04:14:35;;;;;;;20.37;16.43;;;12.00;99.90;;;;;;5133752;27;20166;-78
2022/10/20 04:17:00;;;;;;;22.17;16.60;;;12.00;99.90;;;;;;5133970;27;20163;-78
2022/10/20 04:19:26;;;;;;;27.13;18.00;;;12.00;99.90;;;;;;5133933;27;20202;-78
2022/10/20 04:21:51;;;;;;;25.20;17.27;;;11.90;99.90;;;;;;5134273;27;20170;-78
2022/10/20 04:24:17;;;;;;;22.37;17.13;;;11.90;99.90;;;;;;5133973;27;20666;-78
2022/10/20 04:26:43;;;;;;;23.07;16.83;;;11.90;99.90;;;;;;5133771;27;20190;-78
2022/10/20 04:29:08;;;;;;;31.10;16.90;;;11.90;99.90;;;;;;5133746;27;20610;-78
2022/10/20 04:31:34;;;;;;;27.27;17.20;;;11.90;99.90;;;;;;5114901;28;20237;-78
2022/10/20 04:33:59;;;;;;;25.17;16.30;;;12.00;99.90;;;;;;5115773;28;20170;-78
2022/10/20 04:36:25;;;;;;;22.80;16.17;;;12.10;99.90;;;;;;5136926;27;20201;-77
2022/10/20 04:38:50;;;;;;;21.17;16.83;;;12.10;99.90;;;;;;5119472;27;20210;-77
2022/10/20 04:41:16;;;;;;;24.30;17.10;;;12.20;99.90;;;;;;5137423;27;20170;-75
2022/10/20 04:43:42;;;;;;;20.37;15.83;;;12.30;99.90;;;;;;5137590;27;20193;-75
2022/10/20 04:46:07;;;;;;;19.60;15.03;;;12.30;99.90;;;;;;5137922;27;20171;-78
2022/10/20 04:48:33;;;;;;;24.40;17.07;;;12.30;99.90;;;;;;5137576;27;20250;-79
2022/10/20 04:51:07;;;;;;;19.27;15.53;;;12.40;99.90;;;;;;5137555;27;20171;-77
2022/10/20 04:53:33;;;;;;;24.80;15.60;;;12.40;99.90;;;;;;5118691;27;20543;-78
2022/10/20 04:55:58;;;;;;;22.87;16.40;;;12.50;99.90;;;;;;5137280;27;20232;-77
2022/10/20 04:58:25;;;;;;;21.13;15.47;;;12.30;99.90;;;;;;5137605;27;20661;-77
2022/10/20 05:00:51;;;;;;;27.77;15.50;;;12.30;99.90;;;;;;5118434;27;20218;-78
2022/10/20 05:03:17;;;;;;;25.57;15.63;;;12.30;99.90;;;;;;5137039;27;20169;-76
2022/10/20 05:05:44;;;;;;;22.77;17.00;;;12.20;99.90;;;;;;5137322;27;20178;-78
2022/10/20 05:08:10;;;;;;;24.17;15.57;;;12.20;99.90;;;;;;5137695;27;20586;-79
2022/10/20 05:10:35;;;;;;;24.20;16.30;;;12.10;99.90;;;;;;5136500;27;20257;-79
2022/10/20 05:13:01;;;;;;;27.23;16.27;;;12.20;99.90;;;;;;5135873;27;20163;-78
2022/10/20 05:15:26;;;;;;;19.93;15.87;;;12.10;99.90;;;;;;5136957;27;20201;-78
2022/10/20 05:17:52;;;;;;;28.37;16.93;;;12.20;99.90;;;;;;5137593;27;20166;-78
2022/10/20 05:20:18;;;;;;;22.00;15.27;;;12.30;99.90;;;;;;5136185;27;20189;-78
2022/10/20 05:22:43;;;;;;;23.50;15.60;;;12.20;99.90;;;;;;5135787;27;20167;-78
2022/10/20 05:25:09;;;;;;;24.03;16.03;;;12.30;99.90;;;;;;5136044;27;20214;-79
2022/10/20 05:27:34;;;;;;;24.73;16.23;;;12.30;99.90;;;;;;5117898;27;20197;-78
2022/10/20 05:30:01;;;;;;;25.33;16.03;;;12.40;99.90;;;;;;5136119;27;20163;-78
2022/10/20 05:32:28;;;;;;;27.60;16.27;;;12.40;99.90;;;;;;5136049;27;20214;-78
2022/10/20 05:34:53;;;;;;;22.37;16.20;;;12.40;99.90;;;;;;5136349;27;20175;-79
2022/10/20 05:37:19;;;;;;;28.17;17.73;;;12.40;99.90;;;;;;5136504;27;20163;-78
2022/10/20 05:39:45;;;;;;;23.73;17.17;;;12.50;99.90;;;;;;5136131;27;20213;-78
2022/10/20 05:42:11;;;;;;;30.10;17.43;;;12.50;99.90;;;;;;5136408;27;20170;-79
2022/10/20 05:44:36;;;;;;;26.30;17.20;;;12.50;99.90;;;;;;5136100;27;20201;-78
2022/10/20 05:47:02;;;;;;;23.60;15.67;;;12.50;99.90;;;;;;5134895;27;20242;-79
2022/10/20 05:49:28;;;;;;;25.53;19.17;;;12.50;99.90;;;;;;5135965;27;20530;-80
2022/10/20 05:51:53;;;;;;;23.40;15.70;;;12.50;99.90;;;;;;5136031;27;20166;-79
2022/10/20 05:54:19;;;;;;;25.77;15.90;;;12.50;99.90;;;;;;5135588;27;20180;-78
2022/10/20 05:56:45;;;;;;;27.97;16.37;;;12.60;99.90;;;;;;5135432;27;20624;-78
2022/10/20 05:59:11;;;;;;;27.10;16.00;;;12.60;99.90;;;;;;5135397;27;20230;-79
2022/10/20 06:01:40;;;;;;;23.50;15.37;;;12.70;99.90;;;;;;5135485;27;20188;-79
2022/10/20 06:04:09;;;;;;;29.97;16.83;;;12.70;99.90;;;;;;5135664;27;20258;-79
2022/10/20 06:06:35;;;;;;;25.57;15.83;;;12.60;99.90;;;;;;5135341;27;20219;-78
2022/10/20 06:09:05;;;;;;;22.63;15.70;;;12.50;99.90;;;;;;5134476;27;20182;-78
2022/10/20 06:11:30;;;;;;;19.57;15.30;;;12.60;99.90;;;;;;5135488;27;20186;-80
2022/10/20 06:13:56;;;;;;;21.27;15.00;;;12.60;99.90;;;;;;5135916;27;20262;-79
2022/10/20 06:16:24;;;;;;;24.03;15.80;;;12.70;99.90;;;;;;5135637;27;20166;-79
2022/10/20 06:18:50;;;;;;;23.83;15.90;;;12.70;99.90;;;;;;5134623;27;20195;-78
2022/10/20 06:21:21;;;;;;;22.57;15.53;;;12.80;99.90;;;;;;5135192;27;20235;-79
2022/10/20 06:23:47;;;;;;;22.50;13.83;;;12.90;99.90;;;;;;5134246;27;20253;-79
2022/10/20 06:26:18;;;;;;;25.60;16.00;;;13.10;99.90;;;;;;5135125;27;20167;-79
2022/10/20 06:28:46;;;;;;;23.10;12.80;;;13.10;99.90;;;;;;5135236;27;20618;-78
2022/10/20 06:31:31;;;;;;;22.10;13.20;;;13.40;99.90;;;;;;5135392;27;20180;-79
2022/10/20 06:33:57;;;;;;;18.23;11.97;;;13.60;99.90;;;;;;5093130;28;20242;-79
2022/10/20 06:36:24;;;;;;;18.27;11.03;;;13.80;99.90;;;;;;5093893;28;20207;-79
2022/10/20 06:38:57;;;;;;;21.03;12.33;;;14.10;99.90;;;;;;5093851;28;20210;-79
2022/10/20 06:41:24;;;;;;;13.53;10.67;;;14.20;99.90;;;;;;5093604;28;20199;-79
2022/10/20 06:43:56;;;;;;;14.63;10.13;;;14.30;99.90;;;;;;5094216;28;20184;-80
2022/10/20 06:46:22;;;;;;;11.57;9.83;;;14.50;99.90;;;;;;5099301;28;20176;-78
2022/10/20 06:48:48;;;;;;;13.07;9.43;;;14.70;99.90;;;;;;5097071;28;20168;-79
2022/10/20 06:51:18;;;;;;;17.07;9.47;;;14.70;99.90;;;;;;5105266;28;20196;-79
2022/10/20 06:53:44;;;;;;;9.80;8.80;;;14.90;99.90;;;;;;5096529;28;20623;-79
2022/10/20 06:56:22;;;;;;;13.50;8.93;;;15.00;99.90;;;;;;5094328;28;20168;-78
2022/10/20 06:58:50;;;;;;;17.10;9.20;;;15.10;99.90;;;;;;5093206;28;20204;-79
2022/10/20 07:01:22;;;;;;;10.97;8.97;;;15.20;99.90;;;;;;5087648;28;20180;-78
2022/10/20 07:03:48;;;;;;;12.73;8.70;;;15.30;99.90;;;;;;5072583;28;20169;-78
2022/10/20 07:06:20;;;;;;;16.47;8.77;;;15.40;99.90;;;;;;5071810;28;20199;-78
2022/10/20 07:08:46;;;;;;;13.37;8.90;;;15.40;99.90;;;;;;5093006;28;20176;-78
2022/10/20 07:11:15;;;;;;;13.60;8.60;;;15.60;99.90;;;;;;5092371;28;20171;-75
2022/10/20 07:13:41;;;;;;;12.10;8.27;;;15.60;99.90;;;;;;5084262;28;20725;-78
2022/10/20 07:16:10;;;;;;;16.17;9.17;;;15.70;99.90;;;;;;5076521;28;20175;-78
2022/10/20 07:18:36;;;;;;;13.07;8.00;;;15.80;99.90;;;;;;5082081;28;20231;-76
2022/10/20 07:21:08;;;;;;;19.10;8.23;;;15.90;99.90;;;;;;5076246;28;20902;-77
2022/10/20 07:23:34;;;;;;;16.20;8.47;;;15.90;99.90;;;;;;5076952;28;20176;-78
2022/10/20 07:26:24;;;;;;;13.53;7.97;;;16.00;99.90;;;;;;5082891;28;20200;-77
2022/10/20 07:28:53;;;;;;;10.90;8.00;;;16.00;99.90;;;;;;5084510;28;20627;-76
2022/10/20 07:31:27;;;;;;;13.83;8.80;;;16.10;99.90;;;;;;5076641;28;20246;-77
2022/10/20 07:33:53;;;;;;;12.93;8.53;;;16.10;99.90;;;;;;5120303;27;20547;-77
2022/10/20 07:36:25;;;;;;;10.27;7.77;;;16.20;99.90;;;;;;5130064;27;20162;-77
2022/10/20 07:38:53;;;;;;;12.30;8.10;;;16.30;99.90;;;;;;5131421;27;20204;-77
2022/10/20 07:41:19;;;;;;;11.10;8.17;;;16.30;99.90;;;;;;5120318;27;20185;-83
2022/10/20 07:43:47;;;;;;;14.93;8.70;;;16.30;99.90;;;;;;5108996;27;20171;-80
2022/10/20 07:46:14;;;;;;;13.17;8.33;;;16.40;99.90;;;;;;5120943;27;20209;-79
2022/10/20 07:48:40;;;;;;;13.33;8.70;;;16.40;99.90;;;;;;5121668;27;20186;-78
2022/10/20 07:51:12;;;;;;;15.13;8.20;;;16.40;99.90;;;;;;5120008;27;20179;-77
2022/10/20 07:53:38;;;;;;;15.13;8.10;;;16.50;99.90;;;;;;5123662;27;20206;-77
2022/10/20 07:56:04;;;;;;;18.13;8.53;;;16.50;99.90;;;;;;5127270;27;20246;-79
2022/10/20 07:58:29;;;;;;;14.17;7.93;;;16.50;99.90;;;;;;5131667;27;20194;-77
2022/10/20 08:00:55;;;;;;;18.53;8.60;;;16.60;99.90;;;;;;5108383;28;20179;-77
2022/10/20 08:03:20;;;;;;;18.37;8.73;;;16.70;99.90;;;;;;5110949;27;20178;-78
2022/10/20 08:05:46;;;;;;;13.67;8.13;;;17.00;99.90;;;;;;5125580;27;20626;-81
2022/10/20 08:08:11;;;;;;;17.08;9.05;;;17.30;99.90;;;;;;5096295;28;20271;-77
2022/10/20 08:10:37;;;;;;;13.48;8.88;;;17.40;99.90;;;;;;5115334;27;20208;-77
2022/10/20 08:13:03;;;;;;;17.67;8.70;;;17.70;99.90;;;;;;5131906;27;20173;-78
2022/10/20 08:15:28;;;;;;;14.13;8.23;;;17.80;99.90;;;;;;5116521;27;20194;-78
2022/10/20 08:17:54;;;;;;;16.38;9.05;;;17.60;99.90;;;;;;5124611;27;20657;-80
2022/10/20 08:20:20;;;;;;;13.77;8.07;;;17.60;99.90;;;;;;5120975;27;20190;-77
2022/10/20 08:22:46;;;;;;;13.68;8.70;;;17.50;99.90;;;;;;5128763;27;20167;-77
2022/10/20 08:25:15;;;;;;;10.60;8.15;;;17.40;99.90;;;;;;5131619;27;20277;-79
2022/10/20 08:27:41;;;;;;;12.45;8.13;;;17.30;99.90;;;;;;5110369;27;20649;-79
2022/10/20 08:30:07;;;;;;;13.27;9.10;;;17.30;99.90;;;;;;5131076;27;20178;-75
2022/10/20 08:32:33;;;;;;;18.20;9.43;;;17.20;99.90;;;;;;5120314;28;20218;-77
2022/10/20 08:34:58;;;;;;;11.45;9.30;;;17.10;99.90;;;;;;5113214;28;20193;-80
2022/10/20 08:37:24;;;;;;;14.68;9.32;;;17.10;99.90;;;;;;5107733;28;21490;-79
2022/10/20 08:39:49;;;;;;;14.63;9.07;;;17.00;99.90;;;;;;5106517;28;20214;-78
2022/10/20 08:42:16;;;;;;;10.35;8.68;;;16.70;99.90;;;;;;5109437;28;20718;-77
2022/10/20 08:44:44;;;;;;;17.13;9.83;;;16.70;99.90;;;;;;5123034;28;20193;-74
2022/10/20 08:47:23;;;;;;;17.47;10.30;;;16.60;99.90;;;;;;5118999;28;20194;-75
2022/10/20 08:49:49;;;;;;;14.13;10.27;;;16.60;99.90;;;;;;5119657;28;20289;-77
2022/10/20 08:52:16;;;;;;;19.30;11.37;;;16.50;99.90;;;;;;5108842;28;20645;-78
2022/10/20 08:54:42;;;;;;;21.63;11.67;;;16.50;99.90;;;;;;5128303;28;20194;-78
2022/10/20 08:57:24;;;;;;;29.17;13.53;;;16.40;99.90;;;;;;5132672;28;20182;-78
2022/10/20 08:59:57;;;;;;;22.63;12.60;;;16.40;99.90;;;;;;5115793;28;20209;-77
2022/10/20 09:02:23;;;;;;;14.03;11.53;;;16.30;99.90;;;;;;5129280;28;20192;-76
2022/10/20 09:04:54;;;;;;;21.60;13.03;;;16.40;99.90;;;;;;5131532;28;20253;-77
2022/10/20 09:07:31;;;;;;;18.60;12.77;;;16.30;99.90;;;;;;5127817;28;20311;-77
2022/10/20 09:10:15;;;;;;;17.47;13.20;;;16.30;99.90;;;;;;5117360;28;20184;-76
2022/10/20 09:12:43;;;;;;;23.80;15.23;;;16.40;99.90;;;;;;5129108;28;20174;-78
2022/10/20 09:15:13;;;;;;;20.67;13.53;;;16.30;99.90;;;;;;5117512;28;20646;-75
2022/10/20 09:17:42;;;;;;;21.13;13.10;;;16.30;99.90;;;;;;5127619;28;20198;-76
2022/10/20 09:20:20;;;;;;;18.37;13.50;;;16.20;99.90;;;;;;5129915;28;20215;-75
2022/10/20 09:22:46;;;;;;;16.03;11.70;;;16.10;99.90;;;;;;5130298;27;20316;-78
2022/10/20 09:25:18;;;;;;;16.17;12.60;;;16.00;99.90;;;;;;5130114;27;20182;-79
2022/10/20 09:27:44;;;;;;;16.83;13.43;;;15.90;99.90;;;;;;5118767;27;20654;-79
2022/10/20 09:30:34;;;;;;;20.17;13.50;;;15.80;99.90;;;;;;5122156;27;20183;-76
2022/10/20 09:33:18;;;;;;;18.67;14.17;;;15.80;99.90;;;;;;5125533;27;20226;-76
2022/10/20 09:35:47;;;;;;;18.33;14.30;;;15.70;99.90;;;;;;5134463;27;20274;-78
2022/10/20 09:38:21;;;;;;;18.73;13.00;;;15.60;99.90;;;;;;5124163;27;20201;-76
2022/10/20 09:41:12;;;;;;;21.03;13.47;;;15.60;99.90;;;;;;5134982;27;20174;-78
2022/10/20 09:43:46;;;;;;;22.00;14.37;;;15.70;99.90;;;;;;5127482;27;20186;-76
2022/10/20 09:46:16;;;;;;;18.03;13.63;;;15.70;99.90;;;;;;5133220;27;20185;-77
2022/10/20 09:48:46;;;;;;;18.67;13.37;;;15.70;99.90;;;;;;5126426;27;20193;-75
2022/10/20 09:51:15;;;;;;;16.63;12.80;;;15.70;99.90;;;;;;5116796;27;20180;-75
2022/10/20 09:54:02;;;;;;;18.83;13.83;;;15.70;99.90;;;;;;5129737;27;20212;-78
2022/10/20 09:56:29;;;;;;;21.77;14.00;;;15.70;99.90;;;;;;5109245;27;20566;-80
2022/10/20 09:58:57;;;;;;;20.73;14.03;;;15.70;99.90;;;;;;5124734;27;20209;-78
2022/10/20 10:01:22;;;;;;;21.37;15.03;;;15.70;99.90;;;;;;5134890;27;20175;-80
2022/10/20 10:03:55;;;;;;;22.73;13.37;;;15.90;99.90;;;;;;5133548;27;20181;-79
2022/10/20 10:06:42;;;;;;;21.37;13.10;;;15.90;99.90;;;;;;5121363;27;20186;-79
2022/10/20 10:09:36;;;;;;;21.17;13.00;;;15.90;99.90;;;;;;5132466;27;20190;-78
2022/10/20 10:12:11;;;;;;;21.23;14.00;;;16.00;99.90;;;;;;5136291;27;20170;-78
2022/10/20 10:14:47;;;;;;;18.10;12.63;;;16.10;99.90;;;;;;5124499;27;20185;-79
2022/10/20 10:17:35;;;;;;;14.93;11.73;;;16.20;99.90;;;;;;5119568;27;20234;-76
2022/10/20 10:20:04;;;;;;;15.27;11.30;;;16.30;99.90;;;;;;5097642;27;20210;-79
2022/10/20 10:22:30;;;;;;;14.50;11.00;;;16.50;99.90;;;;;;5117544;27;20734;-79
2022/10/20 10:24:56;;;;;;;22.47;11.40;;;16.70;99.90;;;;;;5123878;27;20183;-79
2022/10/20 10:27:28;;;;;;;15.73;10.77;;;16.80;99.90;;;;;;5129045;27;20198;-80
2022/10/20 10:30:12;;;;;;;14.57;10.17;;;17.00;99.90;;;;;;5118481;27;20167;-80
2022/10/20 10:32:43;;;;;;;13.77;9.45;;;17.20;99.90;;;;;;5128882;27;20256;-79
2022/10/20 10:35:26;;;;;;;12.52;9.82;;;17.30;99.90;;;;;;5133325;27;20181;-77
2022/10/20 10:37:52;;;;;;;11.30;9.40;;;17.40;99.90;;;;;;5133318;27;20512;-80
2022/10/20 10:40:23;;;;;;;12.27;9.10;;;17.40;99.90;;;;;;5131650;27;20212;-79
2022/10/20 10:43:16;;;;;;;11.27;8.85;;;17.40;99.90;;;;;;5133847;27;20170;-78
2022/10/20 10:45:55;;;;;;;11.98;8.65;;;17.50;99.90;;;;;;5114863;27;20175;-79
2022/10/20 10:48:44;;;;;;;9.70;8.00;;;17.70;99.90;;;;;;5121727;27;20650;-78
2022/10/20 10:51:26;;;;;;;9.32;8.35;;;17.70;99.90;;;;;;5132411;27;20641;-79
2022/10/20 10:53:58;;;;;;;14.13;8.85;;;17.80;99.90;;;;;;5117878;27;20254;-77
2022/10/20 10:56:44;;;;;;;11.23;8.50;;;17.90;99.90;;;;;;5133626;27;20167;-80
2022/10/20 10:59:22;;;;;;;12.30;8.10;;;17.90;99.90;;;;;;5133198;27;20218;-78
2022/10/20 11:02:15;;;;;;;16.08;8.70;;;17.80;99.90;;;;;;5134626;27;20264;-78
2022/10/20 11:05:00;;;;;;;14.05;9.10;;;17.80;99.90;;;;;;5140506;27;20253;-76
2022/10/20 11:07:31;;;;;;;13.00;8.60;;;17.90;99.90;;;;;;5133449;27;20166;-74
2022/10/20 11:10:15;;;;;;;13.38;9.18;;;17.90;99.90;;;;;;5129591;27;20242;-75
2022/10/20 11:12:55;;;;;;;12.40;8.27;;;18.00;99.90;;;;;;5128889;27;20179;-76
2022/10/20 11:15:53;;;;;;;12.73;8.98;;;18.10;99.90;;;;;;5133498;27;20235;-76
2022/10/20 11:18:52;;;;;;;15.75;8.32;;;18.30;99.90;;;;;;5126667;27;20689;-79
2022/10/20 11:21:43;;;;;;;9.27;8.15;;;18.60;99.90;;;;;;5128434;27;20236;-75
2022/10/20 11:24:09;;;;;;;16.52;8.68;;;19.00;99.90;;;;;;5122680;27;20194;-78
2022/10/20 11:26:43;;;;;;;12.63;7.50;;;19.60;99.90;;;;;;5133672;27;20194;-78
2022/10/20 11:29:31;;;;;;;16.00;8.02;;;20.10;99.90;;;;;;5115369;27;20598;-76
2022/10/20 11:32:28;;;;;;;11.02;7.10;;;20.40;99.90;;;;;;5130617;27;20218;-76
2022/10/20 11:35:31;;;;;;;12.45;7.70;;;20.60;99.90;;;;;;5113177;27;20250;-82
2022/10/20 11:38:11;;;;;;;11.15;6.90;;;21.10;99.90;;;;;;5095435;27;20703;-81
2022/10/20 11:40:42;;;;;;;11.45;6.68;;;21.60;99.90;;;;;;5125696;27;20211;-81
2022/10/20 11:43:28;;;;;;;11.85;6.68;;;21.80;99.90;;;;;;5127210;27;20247;-83
2022/10/20 11:46:01;;;;;;;9.43;4.97;;;22.30;99.90;;;;;;5115204;27;20175;-83
2022/10/20 11:48:34;;;;;;;9.27;5.45;;;22.00;99.90;;;;;;5120913;27;20198;-81
2022/10/20 11:51:42;;;;;;;10.07;5.07;;;22.00;99.90;;;;;;5130931;27;20199;-83
2022/10/20 11:54:28;;;;;;;7.40;5.18;;;21.60;99.90;;;;;;5034943;28;20197;-84
2022/10/20 11:57:15;;;;;;;10.27;4.95;;;21.90;99.90;;;;;;5040484;28;20193;-82
2022/10/20 11:59:44;;;;;;;10.40;5.03;;;21.90;99.90;;;;;;5045289;28;20304;-79
2022/10/20 12:02:37;;;;;;;9.27;4.93;;;21.70;99.90;;;;;;5043793;28;20196;-81
2022/10/20 12:05:40;;;;;;;7.53;4.47;;;21.70;99.90;;;;;;5041886;28;20181;-80
2022/10/20 12:08:20;;;;;;;6.38;5.03;;;21.70;99.90;;;;;;5043800;28;20284;-82
2022/10/20 12:11:16;;;;;;;8.82;5.20;;;21.90;99.90;;;;;;5040216;28;20272;-82
2022/10/20 12:13:59;;;;;;;10.27;4.75;;;21.90;99.90;;;;;;5036928;28;20233;-82
2022/10/20 12:16:52;;;;;;;9.80;4.32;;;22.00;99.90;;;;;;5045953;28;20292;-83
2022/10/20 12:19:32;;;;;;;9.93;5.00;;;22.00;99.90;;;;;;5032298;28;20213;-80
2022/10/20 12:21:59;;;;;;;8.07;4.50;;;22.00;99.90;;;;;;5043826;28;20668;-81
2022/10/20 12:24:54;;;;;;;10.55;4.45;;;22.00;99.90;;;;;;5042404;28;20188;-81
2022/10/20 12:27:22;;;;;;;5.53;4.25;;;22.10;99.90;;;;;;5043653;28;20209;-83
2022/10/20 12:30:14;;;;;;;5.72;4.80;;;22.00;99.90;;;;;;5123709;27;20239;-84
2022/10/20 12:32:59;;;;;;;6.25;4.10;;;22.20;99.90;;;;;;5058381;28;20297;-85
2022/10/20 12:35:30;;;;;;;5.38;3.80;;;22.10;99.90;;;;;;5100176;28;20667;-85
2022/10/20 12:38:02;;;;;;;6.63;3.80;;;22.30;99.90;;;;;;5112657;28;20254;-86
2022/10/20 12:40:56;;;;;;;7.57;4.15;;;22.20;99.90;;;;;;5096558;28;20245;-86
2022/10/20 12:43:29;;;;;;;9.93;4.45;;;22.10;99.90;;;;;;5101040;28;20172;-83
2022/10/20 12:46:11;;;;;;;7.05;3.80;;;22.20;99.90;;;;;;5095042;28;20901;-82
2022/10/20 12:48:43;;;;;;;6.32;3.80;;;22.20;99.90;;;;;;5101607;28;20236;-87
2022/10/20 12:51:19;;;;;;;4.55;3.10;;;22.20;99.90;;;;;;5097522;28;20245;-83
2022/10/20 12:53:53;;;;;;;4.93;3.20;;;21.80;99.90;;;;;;5101206;28;20167;-83